createdAt,value
2022-09-09T00:01:16.446Z,12.60
2022-09-09T00:06:31.292Z,12.50
2022-09-09T00:11:42.661Z,12.40
2022-09-09T00:16:52.649Z,12.40
2022-09-09T00:22:10.833Z,12.40
2022-09-09T00:27:21.692Z,12.20
2022-09-09T00:32:32.571Z,12.20
2022-09-09T00:37:36.144Z,12.40
2022-09-09T00:42:45.714Z,12.40
2022-09-09T00:47:54.673Z,12.30
2022-09-09T00:53:12.573Z,12.20
2022-09-09T00:58:19.513Z,12.20
2022-09-09T01:03:34.834Z,12.20
2022-09-09T01:09:08.908Z,12.10
2022-09-09T01:14:21.815Z,12.00
2022-09-09T01:19:41.845Z,11.90
2022-09-09T01:25:07.778Z,11.80
2022-09-09T01:30:15.122Z,11.80
2022-09-09T01:35:31.302Z,11.80
2022-09-09T01:40:34.848Z,11.70
2022-09-09T01:45:40.446Z,11.60
2022-09-09T01:50:43.846Z,11.60
2022-09-09T01:56:10.380Z,11.50
2022-09-09T02:01:23.872Z,11.40
2022-09-09T02:06:33.097Z,11.60
2022-09-09T02:11:38.012Z,11.70
2022-09-09T02:16:46.516Z,11.80
2022-09-09T02:21:50.787Z,11.80
2022-09-09T02:26:56.566Z,11.90
2022-09-09T02:32:05.186Z,12.00
2022-09-09T02:37:13.014Z,12.00
2022-09-09T02:42:16.904Z,12.10
2022-09-09T02:47:30.321Z,12.20
2022-09-09T02:52:55.689Z,12.30
2022-09-09T02:58:01.585Z,12.40
2022-09-09T03:03:11.916Z,12.50
2022-09-09T03:08:16.331Z,12.40
2022-09-09T03:13:20.691Z,12.40
2022-09-09T03:18:26.272Z,12.50
2022-09-09T03:23:30.453Z,12.50
2022-09-09T03:28:34.283Z,12.50
2022-09-09T03:33:39.256Z,12.40
2022-09-09T03:38:42.564Z,12.50
2022-09-09T03:43:45.786Z,12.70
2022-09-09T03:48:50.668Z,12.90
2022-09-09T03:53:59.143Z,13.10
2022-09-09T03:59:02.847Z,13.20
2022-09-09T04:04:07.739Z,13.20
2022-09-09T04:09:11.346Z,13.20
2022-09-09T04:14:14.904Z,13.00
2022-09-09T04:19:20.565Z,12.90
2022-09-09T04:24:23.726Z,12.90
2022-09-09T04:29:27.065Z,12.80
2022-09-09T04:34:32.458Z,12.70
2022-09-09T04:39:35.734Z,12.70
2022-09-09T04:44:40.407Z,12.70
2022-09-09T04:49:44.931Z,12.80
2022-09-09T04:54:49.017Z,12.90
2022-09-09T04:59:52.191Z,12.90
2022-09-09T05:04:57.171Z,12.80
2022-09-09T05:10:00.319Z,12.70
2022-09-09T05:15:03.518Z,12.60
2022-09-09T05:20:10.277Z,12.60
2022-09-09T05:25:15.110Z,12.70
2022-09-09T05:30:19.944Z,12.70
2022-09-09T05:35:24.529Z,12.80
2022-09-09T05:40:27.806Z,12.90
2022-09-09T05:45:30.904Z,13.10
2022-09-09T05:50:35.441Z,13.30
2022-09-09T05:55:38.981Z,13.50
2022-09-09T06:00:42.253Z,13.80
2022-09-09T06:05:46.834Z,14.00
2022-09-09T06:10:49.938Z,14.30
2022-09-09T06:15:53.581Z,14.50
2022-09-09T06:20:59.892Z,14.70
2022-09-09T06:26:06.637Z,15.10
2022-09-09T06:31:11.815Z,15.70
2022-09-09T06:36:19.042Z,16.40
2022-09-09T06:41:24.612Z,17.40
2022-09-09T06:46:34.078Z,18.10
2022-09-09T06:51:43.722Z,19.50
2022-09-09T06:56:47.123Z,19.00
2022-09-09T07:01:56.645Z,18.60
2022-09-09T07:07:02.055Z,18.90
2022-09-09T07:12:06.893Z,19.30
2022-09-09T07:17:10.049Z,19.30
2022-09-09T07:22:14.691Z,19.10
2022-09-09T07:27:17.874Z,19.10
2022-09-09T07:32:22.622Z,19.30
2022-09-09T07:37:27.148Z,19.50
2022-09-09T07:42:33.833Z,19.80
2022-09-09T07:47:37.388Z,19.90
2022-09-09T07:52:42.156Z,20.10
2022-09-09T07:57:45.403Z,19.50
2022-09-09T08:02:48.699Z,19.70
2022-09-09T08:07:53.266Z,20.60
2022-09-09T08:13:16.749Z,21.50
2022-09-09T08:18:19.819Z,21.20
2022-09-09T08:23:24.385Z,20.80
2022-09-09T08:28:27.509Z,20.90
2022-09-09T08:33:30.784Z,21.20
2022-09-09T08:38:35.707Z,22.30
2022-09-09T08:43:38.970Z,24.20
2022-09-09T08:48:53.988Z,25.00
2022-09-09T08:54:04.996Z,22.70
2022-09-09T08:59:13.990Z,21.40
2022-09-09T09:04:33.821Z,21.10
2022-09-09T09:09:48.667Z,21.40
2022-09-09T09:14:51.937Z,21.60
2022-09-09T09:19:55.084Z,22.50
2022-09-09T09:25:11.782Z,25.70
2022-09-09T09:30:30.269Z,27.30
2022-09-09T09:35:38.571Z,27.40
2022-09-09T09:40:54.010Z,27.70
2022-09-09T09:51:26.365Z,28.10
2022-09-09T09:56:31.266Z,27.20
2022-09-09T10:01:36.154Z,26.10
2022-09-09T10:06:40.889Z,24.50
2022-09-09T10:11:54.802Z,22.70
2022-09-09T10:17:12.397Z,21.60
2022-09-09T10:22:34.990Z,22.30
2022-09-09T10:27:55.498Z,22.90
2022-09-09T10:38:18.394Z,22.90
2022-09-09T10:43:44.649Z,22.50
2022-09-09T10:49:05.941Z,22.30
2022-09-09T10:54:30.499Z,22.60
2022-09-09T10:59:43.393Z,23.40
2022-09-09T11:04:51.827Z,23.90
2022-09-09T11:10:10.780Z,23.80
2022-09-09T11:15:20.579Z,23.10
2022-09-09T11:20:26.364Z,22.30
2022-09-09T11:25:39.145Z,22.80
2022-09-09T11:30:59.017Z,22.10
2022-09-09T11:36:23.329Z,21.10
2022-09-09T11:41:37.722Z,20.80
2022-09-09T11:46:45.331Z,22.20
2022-09-09T11:51:48.610Z,23.20
2022-09-09T11:56:52.114Z,23.30
2022-09-09T12:02:00.834Z,23.50
2022-09-09T12:07:07.095Z,23.20
2022-09-09T12:12:29.095Z,23.60
2022-09-09T12:17:40.641Z,23.20
2022-09-09T12:23:08.981Z,23.10
2022-09-09T12:28:18.822Z,23.00
2022-09-09T12:33:24.728Z,23.10
2022-09-09T12:38:35.019Z,23.10
2022-09-09T12:43:38.558Z,22.30
2022-09-09T12:48:44.583Z,22.00
2022-09-09T12:53:58.960Z,22.60
2022-09-09T12:59:02.439Z,22.50
2022-09-09T13:04:23.225Z,22.60
2022-09-09T13:09:27.533Z,23.20
2022-09-09T13:14:35.829Z,23.00
2022-09-09T13:19:46.470Z,23.40
2022-09-09T13:24:49.867Z,23.30
2022-09-09T13:29:55.962Z,23.30
2022-09-09T13:35:02.415Z,22.30
2022-09-09T13:40:08.120Z,21.70
2022-09-09T13:45:25.261Z,21.40
2022-09-09T13:50:31.254Z,22.30
2022-09-09T13:55:34.977Z,22.60
2022-09-09T14:00:38.679Z,21.80
2022-09-09T14:05:46.478Z,22.00
2022-09-09T14:10:56.763Z,22.20
2022-09-09T14:15:59.956Z,22.20
2022-09-09T14:21:04.558Z,22.30
2022-09-09T14:26:08.504Z,22.20
2022-09-09T14:31:11.849Z,22.40
2022-09-09T14:36:17.174Z,22.30
2022-09-09T14:41:23.588Z,22.00
2022-09-09T14:46:27.589Z,22.60
2022-09-09T14:51:42.905Z,22.70
2022-09-09T14:56:46.107Z,22.90
2022-09-09T15:01:49.786Z,22.50
2022-09-09T15:06:55.125Z,21.70
2022-09-09T15:11:58.463Z,21.30
2022-09-09T15:17:02.146Z,21.40
2022-09-09T15:22:07.529Z,21.40
2022-09-09T15:27:10.896Z,21.30
2022-09-09T15:32:14.054Z,21.10
2022-09-09T15:37:18.914Z,21.10
2022-09-09T15:42:22.147Z,20.80
2022-09-09T15:47:25.271Z,20.70
2022-09-09T15:52:29.817Z,20.60
2022-09-09T15:57:33.120Z,20.60
2022-09-09T16:02:38.111Z,20.50
2022-09-09T16:07:43.510Z,20.40
2022-09-09T16:12:47.505Z,20.40
2022-09-09T16:17:50.679Z,20.30
2022-09-09T16:22:55.322Z,20.00
2022-09-09T16:27:58.470Z,20.10
2022-09-09T16:33:01.649Z,20.00
2022-09-09T16:38:06.161Z,19.60
2022-09-09T16:43:10.197Z,19.20
2022-09-09T16:48:13.774Z,18.90
2022-09-09T16:53:18.264Z,18.60
2022-09-09T16:58:21.592Z,18.40
2022-09-09T17:03:25.807Z,18.20
2022-09-09T17:08:32.466Z,17.90
2022-09-09T17:13:35.627Z,17.80
2022-09-09T17:18:38.959Z,17.70
2022-09-09T17:23:44.343Z,17.50
2022-09-09T17:28:47.910Z,17.30
2022-09-09T17:33:54.717Z,17.00
2022-09-09T17:39:00.797Z,16.70
2022-09-09T17:44:04.899Z,16.50
2022-09-09T17:49:09.869Z,16.20
2022-09-09T17:54:16.135Z,16.20
2022-09-09T17:59:21.796Z,16.20
2022-09-09T18:04:25.017Z,16.10
2022-09-09T18:09:31.227Z,16.20
2022-09-09T18:14:35.615Z,16.40
2022-09-09T18:19:39.673Z,16.50
2022-09-09T18:24:48.329Z,16.50
2022-09-09T18:29:52.502Z,16.40
2022-09-09T18:34:59.162Z,16.30
2022-09-09T18:40:05.418Z,16.40
2022-09-09T18:45:09.351Z,16.40
2022-09-09T18:50:13.397Z,16.30
2022-09-09T18:55:18.000Z,16.20
2022-09-09T19:00:21.341Z,16.10
2022-09-09T19:05:25.364Z,16.10
2022-09-09T19:10:32.518Z,16.00
2022-09-09T19:15:38.469Z,15.90
2022-09-09T19:20:47.427Z,15.70
2022-09-09T19:25:52.181Z,15.60
2022-09-09T19:30:58.339Z,15.50
2022-09-09T19:36:03.231Z,15.40
2022-09-09T19:41:10.518Z,15.30
2022-09-09T19:46:15.868Z,14.90
2022-09-09T19:51:21.671Z,14.70
2022-09-09T19:56:27.769Z,14.60
2022-09-09T20:07:00.678Z,14.50
2022-09-09T20:12:06.749Z,14.60
2022-09-09T20:17:10.961Z,14.50
2022-09-09T20:22:14.656Z,14.50
2022-09-09T20:27:19.307Z,14.50
2022-09-09T20:32:24.774Z,14.50
2022-09-09T20:37:27.958Z,14.40
2022-09-09T20:42:32.991Z,14.40
2022-09-09T20:47:36.106Z,14.20
2022-09-09T20:52:39.389Z,14.20
2022-09-09T20:57:44.468Z,14.10
2022-09-09T21:02:47.547Z,14.00
2022-09-09T21:07:50.712Z,13.90
2022-09-09T21:12:55.541Z,13.90
2022-09-09T21:18:01.465Z,13.80
2022-09-09T21:23:04.593Z,13.60
2022-09-09T21:28:09.412Z,13.50
2022-09-09T21:33:13.127Z,13.40
2022-09-09T21:38:19.256Z,13.30
2022-09-09T21:43:30.087Z,13.20
2022-09-09T21:48:33.296Z,13.30
2022-09-09T21:53:36.717Z,13.30
2022-09-09T21:58:42.690Z,13.50
2022-09-09T22:03:46.563Z,13.60
2022-09-09T22:08:50.111Z,13.70
2022-09-09T22:13:54.722Z,13.70
2022-09-09T22:18:59.252Z,13.60
2022-09-09T22:24:04.501Z,13.70
2022-09-09T22:29:09.126Z,13.80
2022-09-09T22:34:12.245Z,13.80
2022-09-09T22:39:17.492Z,13.80
2022-09-09T22:44:22.393Z,14.00
2022-09-09T22:49:25.729Z,14.00
2022-09-09T22:54:28.931Z,14.00
2022-09-09T22:59:33.536Z,14.10
2022-09-09T23:04:36.757Z,14.00
2022-09-09T23:09:40.128Z,13.90
2022-09-09T23:14:44.590Z,13.70
2022-09-09T23:19:57.117Z,13.70
2022-09-09T23:25:00.396Z,13.70
2022-09-09T23:30:06.152Z,13.80
2022-09-09T23:35:09.819Z,13.70
2022-09-09T23:40:13.044Z,13.50
2022-09-09T23:45:19.583Z,13.30
2022-09-09T23:50:23.293Z,13.20
2022-09-09T23:55:26.492Z,13.30
